createdAt,value
2022-12-24T00:00:43.408Z,47.59
2022-12-24T00:01:43.197Z,48.88
2022-12-24T00:02:42.531Z,47.59
2022-12-24T00:03:43.992Z,47.59
2022-12-24T00:04:45.218Z,48.77
2022-12-24T00:05:43.537Z,49.63
2022-12-24T00:06:45.263Z,49.36
2022-12-24T00:07:45.585Z,49.20
2022-12-24T00:08:44.491Z,49.79
2022-12-24T00:09:44.751Z,50.11
2022-12-24T00:10:47.055Z,50.11
2022-12-24T00:11:47.357Z,50.11
2022-12-24T00:12:45.733Z,50.11
2022-12-24T00:13:46.049Z,50.11
2022-12-24T00:14:46.341Z,50.11
2022-12-24T00:15:48.573Z,50.11
2022-12-24T00:16:46.898Z,50.11
2022-12-24T00:17:47.240Z,50.11
2022-12-24T00:18:47.548Z,50.11
2022-12-24T00:19:49.794Z,50.11
2022-12-24T00:20:49.165Z,50.11
2022-12-24T00:21:49.472Z,50.11
2022-12-24T00:22:48.786Z,50.11
2022-12-24T00:23:50.014Z,50.11
2022-12-24T00:24:51.205Z,50.11
2022-12-24T00:25:49.595Z,50.11
2022-12-24T00:26:50.879Z,50.11
2022-12-24T00:27:51.103Z,50.11
2022-12-24T00:28:51.302Z,50.11
2022-12-24T00:29:50.690Z,50.17
2022-12-24T00:30:51.055Z,50.11
2022-12-24T00:31:53.299Z,50.17
2022-12-24T00:32:51.635Z,50.11
2022-12-24T00:33:54.112Z,50.17
2022-12-24T00:34:51.939Z,50.11
2022-12-24T00:35:52.296Z,50.11
2022-12-24T00:36:53.540Z,50.17
2022-12-24T00:37:54.763Z,50.11
2022-12-24T00:38:53.999Z,50.11
2022-12-24T00:39:53.298Z,50.11
2022-12-24T00:40:55.532Z,50.11
2022-12-24T00:41:53.872Z,50.17
2022-12-24T00:42:54.129Z,50.11
2022-12-24T00:43:54.498Z,50.17
2022-12-24T00:44:54.742Z,50.17
2022-12-24T00:45:55.079Z,50.17
2022-12-24T00:46:55.432Z,50.17
2022-12-24T00:47:55.851Z,50.17
2022-12-24T00:48:56.163Z,50.17
2022-12-24T00:49:58.391Z,50.17
2022-12-24T00:50:58.648Z,50.17
2022-12-24T00:51:56.954Z,50.11
2022-12-24T00:52:59.187Z,50.17
2022-12-24T00:53:57.421Z,50.11
2022-12-24T00:54:57.669Z,50.11
2022-12-24T00:55:57.966Z,50.17
2022-12-24T00:56:58.243Z,50.11
2022-12-24T00:58:00.424Z,50.11
2022-12-24T00:58:58.665Z,50.11
2022-12-24T00:59:58.934Z,50.17
2022-12-24T01:01:01.180Z,50.17
2022-12-24T01:01:59.571Z,50.11
2022-12-24T01:03:00.079Z,50.17
2022-12-24T01:04:00.005Z,50.17
2022-12-24T01:05:01.272Z,50.17
2022-12-24T01:06:01.587Z,50.17
2022-12-24T01:07:02.777Z,50.17
2022-12-24T01:08:01.939Z,50.17
2022-12-24T01:09:02.153Z,50.11
2022-12-24T01:10:02.475Z,50.17
2022-12-24T01:11:03.250Z,50.11
2022-12-24T01:12:02.995Z,50.17
2022-12-24T01:13:02.266Z,50.17
2022-12-24T01:14:02.550Z,50.17
2022-12-24T01:15:02.870Z,50.11
2022-12-24T01:16:03.249Z,50.11
2022-12-24T01:17:05.503Z,50.11
2022-12-24T01:18:04.776Z,50.17
2022-12-24T01:19:04.048Z,50.17
2022-12-24T01:20:04.346Z,50.11
2022-12-24T01:21:25.458Z,50.17
2022-12-24T01:22:28.649Z,50.11
2022-12-24T01:23:25.909Z,50.11
2022-12-24T01:24:27.096Z,50.17
2022-12-24T01:25:28.394Z,50.11
2022-12-24T01:26:26.795Z,50.17
2022-12-24T01:27:29.120Z,50.17
2022-12-24T01:28:28.394Z,50.17
2022-12-24T01:29:27.630Z,50.17
2022-12-24T01:30:27.891Z,50.17
2022-12-24T01:31:28.145Z,50.17
2022-12-24T01:32:28.447Z,50.17
2022-12-24T01:33:30.766Z,50.11
2022-12-24T01:34:29.082Z,50.11
2022-12-24T01:35:29.443Z,50.17
2022-12-24T01:36:31.581Z,50.17
2022-12-24T01:37:30.762Z,50.11
2022-12-24T01:38:31.806Z,50.17
2022-12-24T01:39:31.057Z,50.17
2022-12-24T01:40:30.324Z,50.17
2022-12-24T01:41:30.747Z,50.11
2022-12-24T01:42:31.113Z,50.17
2022-12-24T01:43:32.839Z,50.11
2022-12-24T01:44:36.469Z,50.11
2022-12-24T01:45:32.891Z,50.11
2022-12-24T01:46:34.281Z,50.11
2022-12-24T01:47:33.470Z,50.17
2022-12-24T01:48:33.681Z,50.17
2022-12-24T01:49:32.965Z,50.11
2022-12-24T01:50:34.251Z,50.17
2022-12-24T01:51:33.463Z,50.17
2022-12-24T01:52:33.730Z,50.17
2022-12-24T01:53:33.983Z,50.17
2022-12-24T01:54:36.195Z,50.11
2022-12-24T01:55:35.433Z,50.17
2022-12-24T01:56:35.630Z,50.17
2022-12-24T01:57:36.857Z,50.11
2022-12-24T01:58:35.091Z,50.17
2022-12-24T01:59:37.325Z,50.11
2022-12-24T02:00:35.603Z,50.17
2022-12-24T02:01:35.891Z,50.17
2022-12-24T02:02:37.297Z,50.17
2022-12-24T02:03:37.755Z,50.17
2022-12-24T02:04:37.020Z,50.17
2022-12-24T02:05:39.232Z,50.11
2022-12-24T02:06:39.456Z,50.17
2022-12-24T02:07:37.823Z,50.17
2022-12-24T02:08:38.281Z,50.17
2022-12-24T02:09:40.465Z,50.17
2022-12-24T02:10:39.738Z,50.17
2022-12-24T02:11:40.991Z,50.17
2022-12-24T02:12:39.325Z,50.17
2022-12-24T02:13:40.556Z,50.17
2022-12-24T02:14:39.839Z,50.17
2022-12-24T02:15:40.123Z,50.17
2022-12-24T02:16:42.861Z,50.17
2022-12-24T02:17:41.724Z,50.17
2022-12-24T02:18:40.983Z,50.17
2022-12-24T02:19:43.266Z,50.17
2022-12-24T02:20:41.511Z,50.17
2022-12-24T02:21:41.726Z,50.17
2022-12-24T02:22:42.013Z,50.17
2022-12-24T02:23:43.196Z,50.17
2022-12-24T02:24:43.364Z,50.17
2022-12-24T02:25:43.535Z,50.17
2022-12-24T02:26:42.850Z,50.17
2022-12-24T02:27:45.561Z,50.11
2022-12-24T02:28:45.330Z,50.17
2022-12-24T02:29:45.649Z,50.17
2022-12-24T02:30:43.898Z,50.17
2022-12-24T02:31:44.217Z,50.17
2022-12-24T02:32:44.506Z,50.17
2022-12-24T02:33:44.705Z,50.17
2022-12-24T02:34:45.892Z,50.17
2022-12-24T02:35:47.078Z,50.17
2022-12-24T02:36:47.245Z,50.17
2022-12-24T02:37:47.526Z,50.17
2022-12-24T02:38:46.797Z,50.17
2022-12-24T02:39:46.973Z,50.11
2022-12-24T02:40:47.646Z,50.17
2022-12-24T02:41:46.372Z,50.17
2022-12-24T02:42:46.618Z,50.17
2022-12-24T02:43:46.891Z,50.17
2022-12-24T02:44:47.161Z,50.17
2022-12-24T02:45:47.429Z,50.17
2022-12-24T02:46:49.625Z,50.17
2022-12-24T02:47:48.144Z,50.11
2022-12-24T02:48:49.907Z,50.17
2022-12-24T02:49:49.149Z,50.17
2022-12-24T02:50:49.415Z,50.11
2022-12-24T02:51:49.712Z,50.17
2022-12-24T02:52:49.053Z,50.17
2022-12-24T02:53:49.320Z,50.17
2022-12-24T02:54:51.552Z,50.17
2022-12-24T02:55:51.765Z,50.17
2022-12-24T02:56:50.030Z,50.17
2022-12-24T02:57:50.343Z,50.17
2022-12-24T02:58:50.578Z,49.63
2022-12-24T02:59:51.766Z,49.36
2022-12-24T03:00:51.038Z,48.98
2022-12-24T03:01:51.350Z,49.68
2022-12-24T03:02:51.753Z,50.17
2022-12-24T03:03:52.100Z,49.20
2022-12-24T03:04:53.414Z,49.79
2022-12-24T03:05:52.897Z,49.52
2022-12-24T03:06:54.620Z,48.29
2022-12-24T03:07:53.858Z,48.88
2022-12-24T03:08:54.126Z,49.20
2022-12-24T03:09:54.315Z,48.55
2022-12-24T03:10:53.526Z,49.90
2022-12-24T03:11:53.782Z,49.15
2022-12-24T03:12:54.024Z,48.34
2022-12-24T03:13:54.273Z,48.98
2022-12-24T03:14:55.521Z,49.09
2022-12-24T03:15:54.762Z,48.45
2022-12-24T03:16:55.021Z,47.80
2022-12-24T03:17:57.260Z,49.95
2022-12-24T03:18:56.429Z,49.31
2022-12-24T03:19:55.780Z,48.66
2022-12-24T03:20:57.069Z,48.93
2022-12-24T03:21:56.332Z,47.64
2022-12-24T03:22:58.586Z,48.50
2022-12-24T03:23:56.876Z,48.55
2022-12-24T03:24:57.245Z,48.29
2022-12-24T03:25:57.083Z,48.50
2022-12-24T03:26:57.354Z,48.02
2022-12-24T03:27:58.612Z,48.66
2022-12-24T03:28:59.854Z,47.64
2022-12-24T03:29:58.332Z,49.04
2022-12-24T03:30:58.129Z,47.70
2022-12-24T03:31:58.521Z,48.55
2022-12-24T03:32:58.872Z,47.64
2022-12-24T03:33:59.154Z,47.64
2022-12-24T03:35:01.352Z,47.64
2022-12-24T03:36:00.724Z,47.64
2022-12-24T03:37:00.038Z,47.64
2022-12-24T03:38:02.319Z,47.64
2022-12-24T03:39:00.612Z,47.64
2022-12-24T03:40:00.925Z,47.64
2022-12-24T03:41:01.230Z,47.32
2022-12-24T03:42:01.519Z,47.64
2022-12-24T03:43:02.803Z,47.64
2022-12-24T03:44:03.104Z,47.64
2022-12-24T03:45:04.293Z,47.64
2022-12-24T03:46:02.691Z,47.00
2022-12-24T03:47:03.015Z,47.64
2022-12-24T03:48:03.933Z,47.53
2022-12-24T03:49:04.386Z,47.64
2022-12-24T03:50:05.172Z,47.64
2022-12-24T03:51:05.902Z,46.67
2022-12-24T03:52:05.718Z,47.05
2022-12-24T03:53:06.726Z,46.67
2022-12-24T03:54:05.822Z,46.67
2022-12-24T03:55:06.018Z,47.00
2022-12-24T03:56:06.275Z,46.67
2022-12-24T03:57:06.586Z,46.67
2022-12-24T03:58:06.808Z,46.78
2022-12-24T03:59:07.138Z,46.67
2022-12-24T04:00:07.373Z,46.67
2022-12-24T04:01:07.801Z,46.94
2022-12-24T04:02:07.697Z,47.05
2022-12-24T04:03:07.991Z,47.00
2022-12-24T04:04:08.257Z,46.67
2022-12-24T04:05:08.525Z,46.89
2022-12-24T04:06:08.629Z,47.16
2022-12-24T04:07:09.372Z,46.67
2022-12-24T04:08:09.161Z,46.84
2022-12-24T04:09:09.849Z,45.71
2022-12-24T04:10:10.621Z,47.00
2022-12-24T04:11:10.430Z,46.73
2022-12-24T04:12:10.233Z,47.64
2022-12-24T04:13:10.035Z,46.67
2022-12-24T04:14:10.912Z,45.71
2022-12-24T04:15:11.098Z,46.73
2022-12-24T04:16:11.833Z,46.08
2022-12-24T04:17:11.708Z,46.67
2022-12-24T04:18:11.924Z,45.71
2022-12-24T04:19:12.148Z,45.82
2022-12-24T04:20:12.340Z,46.94
2022-12-24T04:21:12.641Z,46.94
2022-12-24T04:22:12.739Z,46.67
2022-12-24T04:23:14.068Z,45.60
2022-12-24T04:24:13.846Z,45.71
2022-12-24T04:25:12.620Z,45.71
2022-12-24T04:26:13.054Z,46.67
2022-12-24T04:27:13.309Z,46.67
2022-12-24T04:28:13.569Z,46.94
2022-12-24T04:29:13.819Z,46.08
2022-12-24T04:30:15.128Z,46.78
2022-12-24T04:31:14.391Z,46.51
2022-12-24T04:32:16.628Z,46.25
2022-12-24T04:33:16.417Z,46.94
2022-12-24T04:34:17.114Z,46.67
2022-12-24T04:35:17.388Z,45.71
2022-12-24T04:36:15.827Z,45.71
2022-12-24T04:37:18.120Z,46.73
2022-12-24T04:38:17.418Z,46.03
2022-12-24T04:39:16.676Z,46.03
2022-12-24T04:40:19.129Z,45.71
2022-12-24T04:41:23.223Z,46.67
2022-12-24T04:42:18.777Z,45.82
2022-12-24T04:43:18.137Z,45.71
2022-12-24T04:44:18.632Z,46.03
2022-12-24T04:45:19.334Z,46.84
2022-12-24T04:46:18.775Z,46.51
2022-12-24T04:47:18.553Z,45.60
2022-12-24T04:48:18.785Z,45.12
2022-12-24T04:49:19.567Z,45.22
2022-12-24T04:50:19.415Z,46.30
2022-12-24T04:51:20.616Z,45.06
2022-12-24T04:52:19.947Z,46.67
2022-12-24T04:53:21.236Z,46.03
2022-12-24T04:54:20.489Z,46.03
2022-12-24T04:55:21.740Z,45.98
2022-12-24T04:56:20.981Z,46.03
2022-12-24T04:57:21.266Z,46.03
2022-12-24T04:58:23.484Z,45.17
2022-12-24T04:59:21.813Z,45.82
2022-12-24T05:00:24.004Z,47.00
2022-12-24T05:01:24.328Z,46.94
2022-12-24T05:02:24.529Z,45.06
2022-12-24T05:03:23.514Z,45.22
2022-12-24T05:04:24.839Z,45.33
2022-12-24T05:05:25.049Z,45.06
2022-12-24T05:06:23.320Z,45.06
2022-12-24T05:07:23.613Z,45.06
2022-12-24T05:08:25.812Z,45.06
2022-12-24T05:09:24.059Z,45.06
2022-12-24T05:10:24.849Z,45.06
2022-12-24T05:11:25.559Z,45.33
2022-12-24T05:12:25.748Z,45.06
2022-12-24T05:13:29.937Z,45.06
2022-12-24T05:14:26.137Z,45.55
2022-12-24T05:15:25.413Z,45.33
2022-12-24T05:16:25.740Z,46.03
2022-12-24T05:17:26.048Z,45.06
2022-12-24T05:18:27.253Z,45.71
2022-12-24T05:19:26.497Z,45.55
2022-12-24T05:20:27.690Z,46.67
2022-12-24T05:21:27.994Z,45.06
2022-12-24T05:22:29.345Z,45.06
2022-12-24T05:23:28.561Z,45.06
2022-12-24T05:24:28.789Z,45.82
2022-12-24T05:25:28.203Z,45.06
2022-12-24T05:26:28.421Z,45.06
2022-12-24T05:27:30.610Z,45.06
2022-12-24T05:28:29.759Z,45.06
2022-12-24T05:29:29.150Z,45.06
2022-12-24T05:30:31.387Z,44.85
2022-12-24T05:31:30.801Z,45.06
2022-12-24T05:32:30.998Z,45.06
2022-12-24T05:33:30.419Z,45.06
2022-12-24T05:34:31.569Z,44.96
2022-12-24T05:35:31.377Z,45.06
2022-12-24T05:36:31.184Z,45.06
2022-12-24T05:37:32.411Z,44.15
2022-12-24T05:38:33.636Z,45.06
2022-12-24T05:39:32.959Z,45.06
2022-12-24T05:40:33.233Z,44.42
2022-12-24T05:41:32.512Z,45.06
2022-12-24T05:42:34.746Z,44.31
2022-12-24T05:43:33.159Z,45.06
2022-12-24T05:44:33.391Z,45.06
2022-12-24T05:45:34.764Z,44.15
2022-12-24T05:46:34.306Z,44.37
2022-12-24T05:47:39.595Z,44.15
2022-12-24T05:48:36.188Z,45.06
2022-12-24T05:49:36.491Z,44.20
2022-12-24T05:50:34.837Z,43.18
2022-12-24T05:51:36.043Z,44.63
2022-12-24T05:52:35.294Z,44.26
2022-12-24T05:53:36.469Z,45.06
2022-12-24T05:54:35.703Z,44.69
2022-12-24T05:55:36.015Z,45.06
2022-12-24T05:56:37.277Z,45.06
2022-12-24T05:57:38.206Z,45.06
2022-12-24T05:58:37.997Z,44.15
2022-12-24T05:59:37.244Z,45.06
2022-12-24T06:00:38.647Z,45.06
2022-12-24T06:01:37.996Z,44.63
2022-12-24T06:02:38.397Z,43.77
2022-12-24T06:03:38.824Z,45.06
2022-12-24T06:04:39.224Z,45.06
2022-12-24T06:05:39.492Z,45.06
2022-12-24T06:06:42.087Z,44.15
2022-12-24T06:07:41.780Z,44.15
2022-12-24T06:08:41.120Z,44.37
2022-12-24T06:09:40.370Z,43.99
2022-12-24T06:10:40.702Z,44.15
2022-12-24T06:11:40.964Z,45.06
2022-12-24T06:12:42.379Z,44.20
2022-12-24T06:13:41.465Z,44.79
2022-12-24T06:14:41.797Z,43.18
2022-12-24T06:15:42.165Z,44.15
2022-12-24T06:16:42.405Z,45.06
2022-12-24T06:17:42.665Z,43.88
2022-12-24T06:18:42.931Z,43.18
2022-12-24T06:19:45.150Z,44.31
2022-12-24T06:20:44.392Z,44.58
2022-12-24T06:21:43.647Z,44.85
2022-12-24T06:22:43.934Z,45.06
2022-12-24T06:23:44.187Z,45.06
2022-12-24T06:24:44.399Z,44.15
2022-12-24T06:25:45.779Z,44.15
2022-12-24T06:26:45.012Z,45.06
2022-12-24T06:27:45.260Z,44.42
2022-12-24T06:28:46.603Z,44.15
2022-12-24T06:29:45.830Z,43.51
2022-12-24T06:30:47.591Z,43.34
2022-12-24T06:31:47.364Z,44.96
2022-12-24T06:32:47.725Z,43.72
2022-12-24T06:33:47.894Z,44.15
2022-12-24T06:34:49.383Z,43.45
2022-12-24T06:35:47.622Z,44.42
2022-12-24T06:36:47.848Z,44.15
2022-12-24T06:37:49.107Z,44.42
2022-12-24T06:38:48.346Z,43.51
2022-12-24T06:39:50.551Z,44.42
2022-12-24T06:40:50.817Z,43.18
2022-12-24T06:41:49.091Z,44.37
2022-12-24T06:42:51.452Z,43.94
2022-12-24T06:43:49.674Z,44.42
2022-12-24T06:44:51.471Z,43.40
2022-12-24T06:45:50.206Z,43.56
2022-12-24T06:46:51.521Z,44.79
2022-12-24T06:47:52.671Z,44.42
2022-12-24T06:48:50.930Z,45.06
2022-12-24T06:49:52.162Z,43.18
2022-12-24T06:50:53.395Z,43.61
2022-12-24T06:51:53.599Z,44.20
2022-12-24T06:52:51.941Z,43.51
2022-12-24T06:53:53.275Z,44.42
2022-12-24T06:54:55.039Z,44.15
2022-12-24T06:55:54.793Z,44.15
2022-12-24T06:56:53.053Z,44.42
2022-12-24T06:57:55.220Z,43.61
2022-12-24T06:58:53.499Z,44.15
2022-12-24T06:59:53.723Z,43.61
2022-12-24T07:00:54.922Z,43.88
2022-12-24T07:01:56.248Z,43.51
2022-12-24T07:02:56.552Z,44.15
2022-12-24T07:03:54.925Z,43.99
2022-12-24T07:04:56.176Z,43.18
2022-12-24T07:05:56.511Z,44.15
2022-12-24T07:06:56.713Z,44.37
2022-12-24T07:07:56.936Z,42.75
2022-12-24T07:08:58.315Z,43.99
2022-12-24T07:09:56.579Z,43.51
2022-12-24T07:10:56.824Z,44.15
2022-12-24T07:11:57.042Z,43.18
2022-12-24T07:12:57.331Z,44.42
2022-12-24T07:13:57.565Z,44.31
2022-12-24T07:14:57.776Z,43.18
2022-12-24T07:15:58.021Z,43.51
2022-12-24T07:16:59.606Z,44.37
2022-12-24T07:18:01.268Z,42.65
2022-12-24T07:18:58.488Z,43.72
2022-12-24T07:19:58.816Z,44.37
2022-12-24T07:20:59.068Z,43.56
2022-12-24T07:22:01.297Z,44.42
2022-12-24T07:22:59.666Z,44.15
2022-12-24T07:23:59.966Z,43.40
2022-12-24T07:25:00.255Z,43.94
2022-12-24T07:26:02.420Z,43.94
2022-12-24T07:27:00.700Z,43.34
2022-12-24T07:28:02.951Z,44.10
2022-12-24T07:29:01.158Z,43.18
2022-12-24T07:30:01.435Z,44.42
2022-12-24T07:31:01.718Z,43.51
2022-12-24T07:32:02.095Z,43.77
2022-12-24T07:33:03.489Z,43.08
2022-12-24T07:34:04.667Z,43.34
2022-12-24T07:35:03.883Z,43.02
2022-12-24T07:36:04.066Z,44.15
2022-12-24T07:37:05.318Z,42.54
2022-12-24T07:38:04.517Z,43.61
2022-12-24T07:39:04.789Z,43.72
2022-12-24T07:40:04.063Z,42.54
2022-12-24T07:41:04.279Z,44.15
2022-12-24T07:42:06.026Z,42.86
2022-12-24T07:43:04.739Z,42.54
2022-12-24T07:44:04.971Z,43.51
2022-12-24T07:45:05.286Z,43.77
2022-12-24T07:46:05.489Z,42.65
2022-12-24T07:47:05.797Z,43.40
2022-12-24T07:48:07.039Z,43.02
2022-12-24T07:49:07.222Z,43.18
2022-12-24T07:50:06.419Z,43.29
2022-12-24T07:51:06.712Z,43.02
2022-12-24T07:52:07.157Z,44.42
2022-12-24T07:53:07.385Z,43.18
2022-12-24T07:54:07.770Z,43.51
2022-12-24T07:55:08.955Z,43.88
2022-12-24T07:56:12.677Z,42.65
2022-12-24T07:57:09.381Z,43.51
2022-12-24T07:58:09.664Z,42.54
2022-12-24T07:59:09.019Z,43.08
2022-12-24T08:00:09.242Z,42.54
2022-12-24T08:01:09.596Z,43.61
2022-12-24T08:02:15.846Z,43.77
2022-12-24T08:03:11.246Z,42.54
2022-12-24T08:04:12.128Z,43.29
2022-12-24T08:05:13.030Z,42.54
2022-12-24T08:06:13.276Z,42.54
2022-12-24T08:07:12.571Z,43.24
2022-12-24T08:08:13.402Z,43.24
2022-12-24T08:09:13.694Z,43.72
2022-12-24T08:10:17.616Z,42.70
2022-12-24T08:11:12.819Z,43.29
2022-12-24T08:12:14.016Z,43.51
2022-12-24T08:13:15.423Z,43.83
2022-12-24T08:14:13.657Z,43.13
2022-12-24T08:15:13.984Z,43.45
2022-12-24T08:16:15.282Z,43.51
2022-12-24T08:17:16.033Z,43.94
2022-12-24T08:18:16.615Z,43.29
2022-12-24T08:19:14.940Z,43.99
2022-12-24T08:20:17.580Z,43.18
2022-12-24T08:21:15.446Z,43.24
2022-12-24T08:22:15.788Z,43.45
2022-12-24T08:23:16.144Z,44.42
2022-12-24T08:24:16.467Z,43.67
2022-12-24T08:25:16.895Z,44.15
2022-12-24T08:26:17.136Z,43.29
2022-12-24T08:27:18.863Z,44.15
2022-12-24T08:28:18.682Z,43.88
2022-12-24T08:29:19.919Z,44.10
2022-12-24T08:30:21.458Z,43.29
2022-12-24T08:31:20.584Z,42.75
2022-12-24T08:32:18.909Z,43.18
2022-12-24T08:33:21.248Z,43.45
2022-12-24T08:34:19.561Z,43.24
2022-12-24T08:35:20.762Z,43.67
2022-12-24T08:36:22.080Z,43.67
2022-12-24T08:37:22.863Z,43.29
2022-12-24T08:38:20.681Z,43.56
2022-12-24T08:39:20.954Z,44.15
2022-12-24T08:40:22.224Z,43.18
2022-12-24T08:41:21.537Z,44.15
2022-12-24T08:42:23.807Z,43.18
2022-12-24T08:43:22.289Z,43.18
2022-12-24T08:44:22.603Z,43.18
2022-12-24T08:45:22.895Z,43.40
2022-12-24T08:46:24.331Z,43.99
2022-12-24T08:47:23.870Z,44.79
2022-12-24T08:48:25.921Z,44.20
2022-12-24T08:49:23.682Z,44.58
2022-12-24T08:50:24.021Z,44.69
2022-12-24T08:51:26.379Z,45.06
2022-12-24T08:52:24.707Z,44.37
2022-12-24T08:53:25.953Z,44.42
2022-12-24T08:54:26.248Z,43.18
2022-12-24T08:55:26.602Z,45.06
2022-12-24T08:56:25.902Z,44.10
2022-12-24T08:57:26.258Z,43.77
2022-12-24T08:58:27.597Z,43.61
2022-12-24T08:59:26.949Z,44.31
2022-12-24T09:00:29.213Z,44.42
2022-12-24T09:01:27.530Z,44.15
2022-12-24T09:02:27.992Z,43.18
2022-12-24T09:03:30.365Z,44.26
2022-12-24T09:04:30.626Z,44.42
2022-12-24T09:05:29.964Z,43.88
2022-12-24T09:06:29.720Z,44.47
2022-12-24T09:07:31.479Z,44.15
2022-12-24T09:08:30.810Z,42.75
2022-12-24T09:09:36.059Z,43.51
2022-12-24T09:10:30.059Z,44.20
2022-12-24T09:11:30.301Z,44.15
2022-12-24T09:12:30.630Z,43.94
2022-12-24T09:13:30.966Z,44.37
2022-12-24T09:14:31.271Z,43.51
2022-12-24T09:15:32.329Z,44.69
2022-12-24T09:16:31.824Z,44.15
2022-12-24T09:17:31.639Z,43.18
2022-12-24T09:18:33.335Z,43.18
2022-12-24T09:19:32.064Z,44.42
2022-12-24T09:20:32.972Z,43.40
2022-12-24T09:21:33.682Z,43.08
2022-12-24T09:22:34.085Z,44.85
2022-12-24T09:23:33.291Z,44.15
2022-12-24T09:24:35.562Z,45.06
2022-12-24T09:25:35.791Z,44.15
2022-12-24T09:26:34.051Z,44.15
2022-12-24T09:27:34.911Z,43.34
2022-12-24T09:28:36.747Z,43.18
2022-12-24T09:29:34.979Z,44.15
2022-12-24T09:30:35.343Z,44.15
2022-12-24T09:31:35.599Z,43.40
2022-12-24T09:32:35.977Z,43.56
2022-12-24T09:33:36.299Z,43.77
2022-12-24T09:34:36.588Z,44.42
2022-12-24T09:35:36.949Z,43.40
2022-12-24T09:36:37.267Z,43.51
2022-12-24T09:37:37.543Z,44.15
2022-12-24T09:38:38.788Z,43.99
2022-12-24T09:39:38.046Z,44.31
2022-12-24T09:40:38.307Z,43.51
2022-12-24T09:41:38.565Z,43.18
2022-12-24T09:42:38.811Z,43.18
2022-12-24T09:43:39.319Z,44.15
2022-12-24T09:44:39.248Z,43.77
2022-12-24T09:45:39.663Z,44.42
2022-12-24T09:46:40.033Z,44.42
2022-12-24T09:47:40.281Z,44.15
2022-12-24T09:48:41.530Z,44.15
2022-12-24T09:49:40.850Z,43.67
2022-12-24T09:50:41.090Z,44.15
2022-12-24T09:51:41.419Z,43.18
2022-12-24T09:52:42.763Z,43.18
2022-12-24T09:53:44.060Z,43.94
2022-12-24T09:54:47.683Z,44.20
2022-12-24T09:55:44.753Z,44.15
2022-12-24T09:56:43.261Z,44.15
2022-12-24T09:57:45.016Z,43.51
2022-12-24T09:58:43.295Z,43.51
2022-12-24T09:59:44.634Z,44.04
2022-12-24T10:00:49.909Z,44.15
2022-12-24T10:01:46.158Z,44.04
2022-12-24T10:02:44.651Z,43.51
2022-12-24T10:03:44.630Z,43.51
2022-12-24T10:04:44.983Z,43.77
2022-12-24T10:05:45.331Z,43.51
2022-12-24T10:06:46.704Z,43.51
2022-12-24T10:07:46.946Z,44.42
2022-12-24T10:08:46.313Z,44.15
2022-12-24T10:09:48.300Z,43.51
2022-12-24T10:10:47.609Z,44.20
2022-12-24T10:11:47.013Z,43.51
2022-12-24T10:12:50.004Z,44.15
2022-12-24T10:13:47.534Z,43.45
2022-12-24T10:14:48.788Z,43.40
2022-12-24T10:15:48.173Z,44.42
2022-12-24T10:16:48.919Z,44.15
2022-12-24T10:17:49.713Z,43.18
2022-12-24T10:18:49.613Z,43.40
2022-12-24T10:19:49.043Z,43.18
2022-12-24T10:20:49.659Z,43.61
2022-12-24T10:21:49.528Z,43.40
2022-12-24T10:22:49.794Z,44.04
2022-12-24T10:23:50.120Z,43.83
2022-12-24T10:24:51.036Z,43.56
2022-12-24T10:25:50.427Z,43.51
2022-12-24T10:26:50.799Z,43.94
2022-12-24T10:27:52.013Z,44.42
2022-12-24T10:28:51.399Z,43.45
2022-12-24T10:29:51.295Z,43.51
2022-12-24T10:30:52.544Z,43.51
2022-12-24T10:31:51.804Z,43.51
2022-12-24T10:32:53.135Z,43.29
2022-12-24T10:33:54.629Z,44.04
2022-12-24T10:34:52.416Z,44.42
2022-12-24T10:35:54.671Z,43.51
2022-12-24T10:36:53.020Z,43.51
2022-12-24T10:37:55.318Z,44.42
2022-12-24T10:38:55.601Z,43.51
2022-12-24T10:39:53.868Z,43.40
2022-12-24T10:40:55.653Z,43.51
2022-12-24T10:41:55.355Z,43.88
2022-12-24T10:42:54.660Z,44.04
2022-12-24T10:43:54.980Z,43.34
2022-12-24T10:44:57.513Z,43.51
2022-12-24T10:45:57.223Z,43.18
2022-12-24T10:46:55.535Z,42.54
2022-12-24T10:47:57.705Z,44.15
2022-12-24T10:48:56.935Z,43.51
2022-12-24T10:49:56.217Z,44.42
2022-12-24T10:50:58.911Z,43.34
2022-12-24T10:51:57.544Z,43.51
2022-12-24T10:52:56.758Z,43.51
2022-12-24T10:53:56.964Z,43.51
2022-12-24T10:54:57.287Z,43.51
2022-12-24T10:55:59.939Z,43.88
2022-12-24T10:56:57.773Z,43.51
2022-12-24T10:57:58.966Z,43.51
2022-12-24T10:58:59.206Z,43.61
2022-12-24T10:59:58.576Z,43.51
2022-12-24T11:01:00.315Z,43.51
2022-12-24T11:01:59.256Z,43.34
2022-12-24T11:03:01.354Z,43.51
2022-12-24T11:04:00.721Z,43.18
2022-12-24T11:04:59.975Z,43.13
2022-12-24T11:06:02.139Z,44.31
2022-12-24T11:07:00.365Z,43.51
2022-12-24T11:08:01.397Z,44.15
2022-12-24T11:09:00.613Z,43.51
2022-12-24T11:10:01.959Z,43.18
2022-12-24T11:11:02.624Z,43.51
2022-12-24T11:12:08.454Z,43.51
2022-12-24T11:13:35.537Z,43.24
2022-12-24T11:14:01.406Z,43.51
2022-12-24T11:15:02.650Z,43.51
2022-12-24T11:16:01.932Z,42.54
2022-12-24T11:17:02.260Z,43.51
2022-12-24T11:18:02.517Z,42.81
2022-12-24T11:19:02.779Z,43.51
2022-12-24T11:20:03.135Z,42.54
2022-12-24T11:21:03.638Z,43.02
2022-12-24T11:22:04.310Z,43.51
2022-12-24T11:23:04.531Z,43.51
2022-12-24T11:24:03.732Z,43.61
2022-12-24T11:25:04.051Z,43.51
2022-12-24T11:26:04.300Z,43.51
2022-12-24T11:27:05.448Z,43.45
2022-12-24T11:28:06.673Z,42.97
2022-12-24T11:29:04.905Z,43.51
2022-12-24T11:30:11.440Z,43.29
2022-12-24T11:31:05.653Z,43.51
2022-12-24T11:32:07.833Z,43.51
2022-12-24T11:33:07.142Z,42.54
2022-12-24T11:34:08.367Z,43.45
2022-12-24T11:35:06.628Z,42.54
2022-12-24T11:36:06.839Z,42.54
2022-12-24T11:37:14.218Z,43.51
2022-12-24T11:38:08.496Z,42.54
2022-12-24T11:39:08.723Z,44.10
2022-12-24T11:40:09.931Z,42.86
2022-12-24T11:41:09.106Z,42.54
2022-12-24T11:42:08.379Z,42.54
2022-12-24T11:43:14.681Z,42.70
2022-12-24T11:44:10.903Z,43.67
2022-12-24T11:45:09.099Z,42.54
2022-12-24T11:46:10.811Z,42.54
2022-12-24T11:47:11.485Z,43.83
2022-12-24T11:48:10.763Z,42.54
2022-12-24T11:49:10.906Z,42.54
2022-12-24T11:50:18.605Z,42.54
2022-12-24T11:51:10.148Z,42.54
2022-12-24T11:52:11.346Z,42.54
2022-12-24T11:53:12.527Z,42.97
2022-12-24T11:54:10.813Z,43.51
2022-12-24T11:55:16.012Z,42.54
2022-12-24T11:56:11.564Z,43.51
2022-12-24T11:57:12.756Z,42.54
2022-12-24T11:58:13.493Z,42.54
2022-12-24T11:59:14.184Z,44.15
2022-12-24T12:00:12.400Z,42.54
2022-12-24T12:01:16.016Z,43.88
2022-12-24T12:02:15.847Z,42.54
2022-12-24T12:03:15.095Z,43.51
2022-12-24T12:04:13.429Z,43.51
2022-12-24T12:05:13.772Z,42.54
2022-12-24T12:06:15.955Z,43.51
2022-12-24T12:07:16.146Z,43.13
2022-12-24T12:08:15.824Z,43.40
2022-12-24T12:09:16.487Z,43.67
2022-12-24T12:10:15.754Z,42.54
2022-12-24T12:11:14.975Z,42.54
2022-12-24T12:12:16.205Z,43.51
2022-12-24T12:13:16.584Z,42.75
2022-12-24T12:14:17.298Z,42.54
2022-12-24T12:15:17.026Z,42.54
2022-12-24T12:16:17.222Z,42.54
2022-12-24T12:17:18.466Z,42.54
2022-12-24T12:18:16.695Z,42.54
2022-12-24T12:19:16.936Z,43.51
2022-12-24T12:20:17.190Z,43.51
2022-12-24T12:21:17.417Z,42.54
2022-12-24T12:22:18.807Z,42.54
2022-12-24T12:23:20.009Z,43.51
2022-12-24T12:24:18.229Z,42.54
2022-12-24T12:25:18.464Z,42.54
2022-12-24T12:26:19.657Z,42.49
2022-12-24T12:27:18.904Z,42.54
2022-12-24T12:28:19.118Z,42.54
2022-12-24T12:29:19.320Z,41.68
2022-12-24T12:30:19.602Z,41.68
2022-12-24T12:31:21.834Z,42.54
2022-12-24T12:32:20.118Z,43.51
2022-12-24T12:33:21.440Z,42.00
2022-12-24T12:34:20.706Z,42.54
2022-12-24T12:35:20.938Z,42.54
2022-12-24T12:36:23.129Z,42.54
2022-12-24T12:37:21.352Z,42.54
2022-12-24T12:38:22.481Z,42.54
2022-12-24T12:39:21.728Z,42.27
2022-12-24T12:40:22.959Z,42.54
2022-12-24T12:41:22.235Z,42.54
2022-12-24T12:42:22.466Z,41.68
2022-12-24T12:43:22.784Z,42.54
2022-12-24T12:44:25.009Z,42.54
2022-12-24T12:45:23.313Z,41.68
2022-12-24T12:46:25.533Z,41.68
2022-12-24T12:47:25.824Z,42.54
2022-12-24T12:48:25.484Z,42.54
2022-12-24T12:49:24.213Z,42.54
2022-12-24T12:50:26.428Z,41.68
2022-12-24T12:51:24.711Z,41.68
2022-12-24T12:52:25.914Z,43.40
2022-12-24T12:53:26.192Z,42.54
2022-12-24T12:54:26.472Z,42.54
2022-12-24T12:55:27.707Z,41.68
2022-12-24T12:56:27.871Z,42.54